Time;durP1;ratioP1;P1;durP2;ratioP2;P2;SDS_P1;SDS_P2;PMS_P1;PMS_P2;Temp;Humidity;BMP_temperature;BMP_pressure;BME280_temperature;BME280_humidity;BME280_pressure;Samples;Min_cycle;Max_cycle;Signal;HPM_P1;HPM_P2
2022/07/10 00:01:34;;;;;;;;;2.50;2.50;;;;;20.82;44.91;101931.00;4890340;29;45539;-85
2022/07/10 00:03:59;;;;;;;;;2.00;2.00;;;;;20.85;45.19;101936.03;4901970;29;45603;-83
2022/07/10 00:06:24;;;;;;;;;2.75;1.50;;;;;20.91;45.32;101954.13;4900068;29;45915;-82
2022/07/10 00:08:50;;;;;;;;;2.25;2.25;;;;;20.86;45.16;101958.19;4901457;29;45711;-84
2022/07/10 00:11:15;;;;;;;;;0.00;0.00;;;;;20.76;45.67;101944.88;4885043;29;45914;-86
2022/07/10 00:13:41;;;;;;;;;3.00;3.00;;;;;20.71;45.98;101938.31;4905126;29;45671;-82
2022/07/10 00:19:28;;;;;;;;;3.00;2.25;;;;;20.70;45.64;101960.59;4910054;28;45503;-82
2022/07/10 00:21:53;;;;;;;;;4.50;4.00;;;;;20.67;45.69;101959.06;4890627;29;45581;-90
2022/07/10 00:24:20;;;;;;;;;5.00;3.50;;;;;20.65;45.90;101958.34;4884376;29;45246;-87
2022/07/10 00:26:47;;;;;;;;;8.25;7.75;;;;;20.57;45.46;101963.53;4902546;29;45543;-89
2022/07/10 00:29:13;;;;;;;;;14.50;14.50;;;;;20.58;45.99;101969.69;4909218;29;46027;-89
2022/07/10 00:35:01;;;;;;;;;14.00;12.25;;;;;20.45;46.84;101959.34;4902569;29;45563;-84
2022/07/10 00:37:27;;;;;;;;;12.00;11.75;;;;;20.39;46.65;101960.75;4898096;29;45919;-81
2022/07/10 00:39:53;;;;;;;;;9.75;9.00;;;;;20.38;47.36;101966.19;4898374;29;46195;-82
2022/07/10 00:42:18;;;;;;;;;6.50;6.50;;;;;20.29;47.73;101957.22;4901695;29;45691;-82
2022/07/10 00:44:44;;;;;;;;;7.50;7.50;;;;;20.23;47.49;101955.09;4901595;29;45508;-83
2022/07/10 00:47:10;;;;;;;;;10.00;8.00;;;;;20.22;47.54;101947.25;4900998;29;45574;-84
2022/07/10 00:49:38;;;;;;;;;8.00;6.75;;;;;20.20;47.57;101949.19;4901250;29;46014;-82
2022/07/10 00:52:07;;;;;;;;;3.25;3.25;;;;;20.15;48.01;101935.47;4901352;29;45650;-83
2022/07/10 00:54:35;;;;;;;;;3.50;3.00;;;;;20.10;48.25;101935.88;4901970;29;45529;-87
2022/07/10 00:57:03;;;;;;;;;5.50;4.75;;;;;20.06;48.16;101942.47;4901861;29;45707;-88
2022/07/10 00:59:29;;;;;;;;;5.25;4.25;;;;;20.09;48.34;101940.34;4902670;29;46000;-86
2022/07/10 01:05:16;;;;;;;;;5.50;4.50;;;;;20.05;48.16;101936.31;4901972;29;45445;-86
2022/07/10 01:07:41;;;;;;;;;2.75;2.50;;;;;20.04;48.75;101947.06;4884547;29;47488;-83
2022/07/10 01:10:07;;;;;;;;;4.00;4.00;;;;;19.89;48.89;101919.19;4901522;29;45537;-82
2022/07/10 01:12:34;;;;;;;;;5.00;4.75;;;;;19.91;49.34;101931.38;4884287;29;45902;-81
2022/07/10 01:14:59;;;;;;;;;3.75;3.00;;;;;19.91;48.80;101930.53;4901482;29;45748;-83
2022/07/10 01:17:28;;;;;;;;;2.75;2.75;;;;;19.82;49.66;101918.88;4900897;29;46054;-82
2022/07/10 01:19:54;;;;;;;;;4.00;4.00;;;;;19.75;49.19;101919.59;4900443;29;46117;-81
2022/07/10 01:22:19;;;;;;;;;2.50;2.00;;;;;19.83;49.39;101941.00;4901057;29;45743;-83
2022/07/10 01:24:45;;;;;;;;;4.75;3.25;;;;;19.73;49.71;101926.84;4884130;29;45514;-83
2022/07/10 01:27:10;;;;;;;;;4.00;3.00;;;;;19.72;49.63;101927.81;4901069;29;46652;-82
2022/07/10 01:29:36;;;;;;;;;2.00;2.00;;;;;19.72;49.76;101938.44;4901161;29;45984;-81
2022/07/10 01:35:24;;;;;;;;;3.50;3.25;;;;;19.63;50.01;101932.16;4900852;29;45630;-80
2022/07/10 01:37:49;;;;;;;;;3.00;3.00;;;;;19.55;49.57;101921.31;4901078;29;46566;-83
2022/07/10 01:40:15;;;;;;;;;3.00;3.00;;;;;19.54;49.82;101928.44;4900710;29;46042;-79
2022/07/10 01:42:40;;;;;;;;;3.25;3.00;;;;;19.48;49.50;101915.72;4900136;29;45471;-80
2022/07/10 01:45:07;;;;;;;;;4.50;4.00;;;;;19.58;50.00;101929.91;4900175;29;45722;-81
2022/07/10 01:47:33;;;;;;;;;4.50;4.00;;;;;19.54;50.17;101927.66;4899722;29;46553;-80
2022/07/10 01:49:58;;;;;;;;;3.50;3.00;;;;;19.49;50.14;101920.03;4899895;29;45622;-80
2022/07/10 01:52:24;;;;;;;;;3.75;3.25;;;;;19.51;49.84;101930.56;4898900;29;45912;-80
2022/07/10 01:54:50;;;;;;;;;4.00;3.50;;;;;19.49;50.29;101920.03;4882806;29;45965;-80
2022/07/10 01:57:15;;;;;;;;;2.50;2.25;;;;;19.53;50.36;101925.94;4899872;29;46570;-80
2022/07/10 01:59:41;;;;;;;;;3.00;3.00;;;;;19.52;50.08;101943.72;4899710;29;45786;-80
2022/07/10 02:05:28;;;;;;;;;2.25;2.00;;;;;19.40;50.48;101914.66;4899834;29;45456;-80
2022/07/10 02:07:53;;;;;;;;;4.00;4.00;;;;;19.43;49.75;101930.38;4899614;29;45851;-79
2022/07/10 02:10:19;;;;;;;;;4.00;4.00;;;;;19.43;50.05;101931.22;4899684;29;46221;-82
2022/07/10 02:12:44;;;;;;;;;2.00;2.00;;;;;19.37;50.31;101926.44;4899690;29;46138;-83
2022/07/10 02:15:09;;;;;;;;;2.25;2.25;;;;;19.31;50.35;101929.59;4900016;29;45642;-81
2022/07/10 02:20:57;;;;;;;;;2.00;2.00;;;;;19.34;50.64;101947.94;4897489;28;45793;-79
2022/07/10 02:23:22;;;;;;;;;4.00;3.25;;;;;19.24;50.63;101942.59;4899578;29;45687;-80
2022/07/10 02:25:47;;;;;;;;;3.00;3.00;;;;;19.14;50.44;101927.56;4899570;29;45713;-79
2022/07/10 02:28:13;;;;;;;;;3.00;3.00;;;;;19.13;51.02;101942.66;4882264;29;48357;-79
2022/07/10 02:30:38;;;;;;;;;3.00;2.25;;;;;19.08;50.75;101931.59;4899432;29;46209;-78
2022/07/10 02:33:04;;;;;;;;;3.25;3.00;;;;;19.11;50.44;101935.81;4899520;29;46230;-78
2022/07/10 02:35:29;;;;;;;;;3.25;3.25;;;;;18.99;50.36;101915.59;4899520;29;45957;-80
2022/07/10 02:37:55;;;;;;;;;4.00;3.00;;;;;19.02;50.88;101916.16;4899174;29;46735;-80
2022/07/10 02:40:20;;;;;;;;;4.00;3.00;;;;;18.99;50.69;101910.28;4899196;29;46518;-79
2022/07/10 02:42:45;;;;;;;;;3.00;2.75;;;;;18.99;50.36;101915.59;4882007;29;45736;-80
2022/07/10 02:45:11;;;;;;;;;3.00;3.00;;;;;19.03;50.40;101915.19;4899651;29;45770;-80
2022/07/10 02:50:58;;;;;;;;;2.25;2.25;;;;;19.03;51.27;101920.50;4898903;29;45784;-79
2022/07/10 02:53:23;;;;;;;;;3.50;2.75;;;;;19.00;50.55;101901.34;4899065;29;45707;-81
2022/07/10 02:55:49;;;;;;;;;2.00;2.00;;;;;19.02;50.75;101905.53;4899199;29;45564;-79
2022/07/10 02:58:15;;;;;;;;;3.00;3.00;;;;;19.02;50.90;101902.88;4899004;29;45758;-79
2022/07/10 03:00:41;;;;;;;;;4.25;4.00;;;;;18.97;50.76;101898.94;4898954;29;46545;-78
2022/07/10 03:06:28;;;;;;;;;3.25;3.25;;;;;19.05;51.03;101905.28;4898833;29;45601;-79
2022/07/10 03:08:54;;;;;;;;;3.50;3.00;;;;;19.04;51.17;101906.25;4898821;29;46309;-79
2022/07/10 03:11:20;;;;;;;;;4.00;3.75;;;;;19.05;51.01;101910.59;4881351;29;47393;-81
2022/07/10 03:13:46;;;;;;;;;3.50;3.00;;;;;18.98;51.33;101909.44;4898884;29;45667;-78
2022/07/10 03:16:11;;;;;;;;;4.50;3.75;;;;;19.01;50.76;101914.47;4881516;29;46355;-80
2022/07/10 03:18:37;;;;;;;;;4.25;3.00;;;;;19.00;50.45;101910.13;4881555;29;46291;-80
2022/07/10 03:21:02;;;;;;;;;4.00;4.00;;;;;18.94;51.33;101910.69;4898493;29;45585;-79
2022/07/10 03:23:27;;;;;;;;;4.50;4.00;;;;;18.90;50.90;101895.13;4898781;29;45557;-80
2022/07/10 03:25:53;;;;;;;;;5.75;4.25;;;;;18.91;50.90;101895.00;4898696;29;45712;-80
2022/07/10 03:28:18;;;;;;;;;5.75;4.50;;;;;18.90;51.52;101903.09;4898497;29;46535;-80
2022/07/10 03:30:44;;;;;;;;;5.00;4.00;;;;;18.93;51.40;101908.16;4898519;29;45581;-79
2022/07/10 03:36:31;;;;;;;;;5.00;4.50;;;;;18.91;51.20;101905.63;4898348;29;45770;-80
2022/07/10 03:38:56;;;;;;;;;3.00;3.00;;;;;18.76;51.11;101875.91;4898539;29;45634;-79
2022/07/10 03:41:21;;;;;;;;;3.50;3.50;;;;;18.75;51.89;101898.13;4881122;29;45901;-80
2022/07/10 03:43:47;;;;;;;;;3.75;3.00;;;;;18.77;51.72;101898.00;4898583;29;45588;-79
2022/07/10 03:46:12;;;;;;;;;3.00;3.00;;;;;18.70;51.45;101884.41;4898646;29;45555;-80
2022/07/10 03:48:38;;;;;;;;;2.00;2.00;;;;;18.73;52.06;101904.56;4898355;29;45650;-80
2022/07/10 03:51:03;;;;;;;;;3.00;3.00;;;;;18.70;52.09;101897.66;4898243;29;45655;-78
2022/07/10 03:53:29;;;;;;;;;4.00;4.00;;;;;18.67;51.92;101891.78;4898264;29;45445;-79
2022/07/10 03:55:54;;;;;;;;;5.00;3.75;;;;;18.61;51.75;101879.03;4898541;29;45493;-80
2022/07/10 03:58:20;;;;;;;;;2.00;2.00;;;;;18.65;51.43;101893.72;4898302;29;46744;-79
2022/07/10 04:00:45;;;;;;;;;4.00;3.00;;;;;18.65;52.49;101897.22;4898175;29;46655;-79
2022/07/10 04:07:03;;;;;;;;;4.00;4.00;;;;;18.66;52.01;101892.75;4898231;29;45840;-79
2022/07/10 04:09:29;;;;;;;;;4.50;4.00;;;;;18.63;51.87;101885.03;4899545;29;45674;-80
2022/07/10 04:11:54;;;;;;;;;7.00;5.00;;;;;18.66;51.70;101892.75;4901337;29;46477;-80
2022/07/10 04:14:20;;;;;;;;;3.00;3.00;;;;;18.57;51.71;101881.06;4904424;29;45439;-80
2022/07/10 04:16:45;;;;;;;;;4.25;4.00;;;;;18.65;52.32;101896.38;4892211;29;45696;-81
2022/07/10 04:19:11;;;;;;;;;4.00;3.00;;;;;18.60;51.97;101902.06;4909602;29;45706;-80
2022/07/10 04:21:36;;;;;;;;;5.00;4.00;;;;;18.59;52.82;101905.69;4909366;29;45527;-81
2022/07/10 04:24:02;;;;;;;;;5.75;4.00;;;;;18.49;52.50;101896.78;4910816;29;45476;-80
2022/07/10 04:26:28;;;;;;;;;3.00;3.00;;;;;18.55;52.63;101911.41;4911295;29;45420;-79
2022/07/10 04:28:53;;;;;;;;;4.00;3.75;;;;;18.42;53.16;101892.97;4910780;29;45703;-79
2022/07/10 04:31:19;;;;;;;;;4.50;3.75;;;;;18.45;53.18;101906.84;4910791;29;45696;-80
2022/07/10 04:37:09;;;;;;;;;5.00;5.00;;;;;18.30;53.37;101909.94;4911169;29;45464;-81
2022/07/10 04:39:39;;;;;;;;;4.00;4.00;;;;;18.24;53.45;101898.00;4911248;29;46540;-80
2022/07/10 04:42:05;;;;;;;;;4.25;3.00;;;;;18.25;53.26;101904.97;4911276;29;45948;-82
2022/07/10 04:44:31;;;;;;;;;3.75;3.00;;;;;18.16;53.35;101895.13;4910065;29;45623;-82
2022/07/10 04:46:56;;;;;;;;;3.75;3.25;;;;;18.10;53.17;101892.97;4909440;29;45777;-81
2022/07/10 04:49:22;;;;;;;;;4.00;4.00;;;;;18.19;53.59;101902.00;4909843;29;46859;-81
2022/07/10 04:51:47;;;;;;;;;5.50;4.50;;;;;18.18;53.76;101902.97;4909514;29;45429;-79
2022/07/10 04:54:13;;;;;;;;;5.25;4.25;;;;;18.18;53.87;101908.28;4908216;29;45668;-81
2022/07/10 04:56:38;;;;;;;;;6.00;4.75;;;;;18.14;53.58;101899.72;4910406;29;45487;-81
2022/07/10 04:59:04;;;;;;;;;5.25;4.25;;;;;18.15;53.36;101898.75;4893490;29;47675;-82
2022/07/10 05:01:29;;;;;;;;;4.00;4.00;;;;;18.06;53.43;101882.75;4896196;29;47581;-80
2022/07/10 05:07:17;;;;;;;;;5.50;4.50;;;;;18.13;53.40;101905.16;4907382;29;45747;-81
2022/07/10 05:09:42;;;;;;;;;4.25;3.25;;;;;18.13;53.76;101900.69;4910102;29;45775;-80
2022/07/10 05:12:08;;;;;;;;;4.75;4.75;;;;;18.13;53.27;101892.75;4905795;29;46459;-80
2022/07/10 05:14:33;;;;;;;;;4.50;3.50;;;;;18.06;53.92;101890.72;4906098;29;45522;-80
2022/07/10 05:16:58;;;;;;;;;4.50;4.00;;;;;18.21;53.10;101900.03;4906939;29;45784;-79
2022/07/10 05:19:24;;;;;;;;;3.00;2.75;;;;;18.25;53.44;101918.25;4907223;29;46537;-80
2022/07/10 05:21:49;;;;;;;;;3.25;3.25;;;;;18.29;52.93;101914.38;4907997;28;46055;-79
2022/07/10 05:24:15;;;;;;;;;4.50;4.00;;;;;18.24;53.03;101895.34;4906423;29;45689;-80
2022/07/10 05:26:46;;;;;;;;;4.25;4.00;;;;;18.34;53.03;101912.19;4905373;29;45698;-79
2022/07/10 05:29:12;;;;;;;;;4.50;4.00;;;;;18.35;53.38;101905.88;4903393;29;46676;-78
2022/07/10 05:31:37;;;;;;;;;4.00;3.75;;;;;18.40;52.69;101918.81;4886728;29;46506;-79
2022/07/10 05:34:03;;;;;;;;;4.25;4.00;;;;;18.29;53.30;101892.31;4903899;29;45592;-81
2022/07/10 05:36:28;;;;;;;;;4.00;4.00;;;;;18.40;53.17;101905.53;4903748;29;45835;-81
2022/07/10 05:38:53;;;;;;;;;5.25;4.25;;;;;18.43;53.16;101907.91;4903480;29;45579;-80
2022/07/10 05:41:19;;;;;;;;;3.25;3.00;;;;;18.35;53.07;101902.41;4902311;29;45920;-81
2022/07/10 05:43:47;;;;;;;;;5.25;4.25;;;;;18.33;52.80;101904.34;4901187;29;45591;-79
2022/07/10 05:46:12;;;;;;;;;7.00;4.75;;;;;18.38;53.05;101908.31;4900801;29;45630;-82
2022/07/10 05:48:38;;;;;;;;;4.25;3.75;;;;;18.40;52.87;101916.16;4900899;29;45688;-79
2022/07/10 05:51:04;;;;;;;;;4.25;4.25;;;;;18.34;53.04;101906.88;4900300;29;45703;-81
2022/07/10 05:53:29;;;;;;;;;5.00;4.25;;;;;18.34;52.95;101903.38;4900366;29;45555;-80
2022/07/10 05:55:59;;;;;;;;;5.50;4.75;;;;;18.37;53.01;101917.22;4900139;29;45754;-81
2022/07/10 05:58:24;;;;;;;;;5.75;5.00;;;;;18.47;52.54;101919.97;4882866;29;47561;-81
2022/07/10 06:00:50;;;;;;;;;5.75;4.00;;;;;18.45;52.76;101919.25;4899786;29;46261;-79
2022/07/10 06:03:23;;;;;;;;;5.50;5.00;;;;;18.46;52.40;101918.28;4900011;29;45651;-80
2022/07/10 06:06:02;;;;;;;;;3.00;3.00;;;;;18.48;52.84;101916.34;4914866;28;45741;-80
2022/07/10 06:08:28;;;;;;;;;3.75;3.25;;;;;18.53;52.29;101919.44;4898714;29;47513;-80
2022/07/10 06:10:53;;;;;;;;;3.25;3.25;;;;;18.53;52.59;101921.25;4882430;29;48017;-81
2022/07/10 06:13:19;;;;;;;;;4.50;3.50;;;;;18.53;51.99;101907.97;4900009;29;45597;-81
2022/07/10 06:15:44;;;;;;;;;5.50;4.00;;;;;18.52;52.22;101909.78;4882631;29;45920;-81
2022/07/10 06:18:09;;;;;;;;;4.75;4.00;;;;;18.64;52.20;101927.38;4899600;29;45579;-80
2022/07/10 06:20:35;;;;;;;;;3.75;3.25;;;;;18.59;51.54;101918.97;4899642;29;46055;-79
2022/07/10 06:23:00;;;;;;;;;5.50;4.00;;;;;18.67;52.12;101921.00;4899805;29;45641;-80
2022/07/10 06:25:26;;;;;;;;;4.00;4.00;;;;;18.61;51.43;101908.22;4900130;29;45996;-78
2022/07/10 06:27:51;;;;;;;;;4.50;4.00;;;;;18.60;51.70;101911.84;4882361;29;48415;-80
2022/07/10 06:30:16;;;;;;;;;4.25;4.00;;;;;18.63;51.38;101916.88;4899350;29;45660;-79
2022/07/10 06:32:44;;;;;;;;;3.75;3.75;;;;;18.63;51.52;101919.53;4899292;29;45651;-79
2022/07/10 06:35:09;;;;;;;;;4.00;4.00;;;;;18.63;51.29;101916.88;4899457;29;45671;-80
2022/07/10 06:37:36;;;;;;;;;5.50;4.50;;;;;18.67;51.58;101923.66;4913276;28;47691;-79
2022/07/10 06:40:01;;;;;;;;;3.00;3.00;;;;;18.59;51.79;101910.16;4899045;29;45985;-81
2022/07/10 06:42:26;;;;;;;;;5.25;4.75;;;;;18.55;51.71;101896.31;4899195;29;46217;-79
2022/07/10 06:44:52;;;;;;;;;5.25;4.00;;;;;18.69;51.54;101919.88;4899325;29;45570;-78
2022/07/10 06:53:26;;;;;;;;;4.25;3.00;;;;;18.74;51.09;101916.81;4898874;29;45686;-81
2022/07/10 06:55:53;;;;;;;;;3.75;3.00;;;;;18.73;50.52;101913.31;4899709;29;45750;-81
2022/07/10 06:58:18;;;;;;;;;3.00;2.00;;;;;18.80;50.68;101914.50;4899077;29;45539;-81
2022/07/10 07:00:44;;;;;;;;;4.75;4.75;;;;;18.89;50.18;101926.19;4898448;29;46443;-81
2022/07/10 07:03:09;;;;;;;;;6.00;4.00;;;;;18.93;50.08;101918.78;4899251;29;45547;-83
2022/07/10 07:05:34;;;;;;;;;3.75;3.75;;;;;18.99;49.87;101926.22;4899588;29;45860;-84
2022/07/10 07:08:00;;;;;;;;;3.50;3.25;;;;;19.03;49.64;101923.16;4898475;29;45560;-83
2022/07/10 07:10:25;;;;;;;;;4.00;3.00;;;;;18.98;49.78;101914.75;4883245;29;47150;-85
2022/07/10 07:12:51;;;;;;;;;3.00;3.00;;;;;19.06;49.15;101930.88;4902593;29;45521;-86
2022/07/10 07:15:16;;;;;;;;;8.00;5.00;;;;;18.97;49.40;101912.22;4899411;29;46025;-82
2022/07/10 07:24:03;;;;;;;;;3.00;3.00;;;;;19.04;48.40;101919.53;4897560;29;45996;-82
2022/07/10 07:26:29;;;;;;;;;3.00;2.75;;;;;19.07;48.40;101923.75;4881413;29;46008;-81
2022/07/10 07:28:54;;;;;;;;;3.00;3.00;;;;;19.03;48.24;101912.53;4881450;29;48726;-83
2022/07/10 07:31:20;;;;;;;;;2.00;2.00;;;;;19.00;48.21;101904.00;4898861;29;46384;-83
2022/07/10 07:33:45;;;;;;;;;1.00;1.00;;;;;19.12;48.32;101908.25;4899003;29;45641;-79
2022/07/10 07:36:11;;;;;;;;;3.00;3.00;;;;;19.14;48.44;101904.50;4881680;29;45733;-81
2022/07/10 07:38:36;;;;;;;;;2.75;2.00;;;;;19.24;48.07;101912.50;4898432;29;45573;-83
2022/07/10 07:41:01;;;;;;;;;3.00;3.00;;;;;19.23;47.89;101903.69;4898554;29;45806;-82
2022/07/10 07:43:27;;;;;;;;;2.25;2.00;;;;;19.20;48.00;101890.69;4898954;29;46156;-83
2022/07/10 07:45:52;;;;;;;;;4.00;2.75;;;;;19.27;47.76;101894.47;4881453;29;45970;-82
2022/07/10 07:48:18;;;;;;;;;4.25;4.00;;;;;19.37;47.70;101896.34;4896616;29;47104;-83
2022/07/10 07:50:43;;;;;;;;;3.00;3.00;;;;;19.38;47.79;101887.41;4880024;29;48128;-82
2022/07/10 07:53:08;;;;;;;;;3.00;3.00;;;;;19.41;47.57;101881.81;4898201;29;45722;-81
2022/07/10 07:55:34;;;;;;;;;4.00;3.00;;;;;19.50;47.66;101888.97;4881437;29;45968;-81
2022/07/10 07:58:01;;;;;;;;;4.00;4.00;;;;;19.50;47.37;101883.66;4898356;29;45457;-81
2022/07/10 08:00:28;;;;;;;;;4.00;3.00;;;;;19.59;47.60;101890.84;4899421;29;45932;-81
2022/07/10 08:02:57;;;;;;;;;3.00;3.00;;;;;19.60;47.57;101890.69;4899407;29;45764;-82
2022/07/10 08:08:44;;;;;;;;;3.25;2.75;;;;;19.75;46.95;101893.00;4901043;29;45633;-82
2022/07/10 08:11:10;;;;;;;;;2.00;2.00;;;;;19.74;47.24;101897.47;4900354;29;46279;-82
2022/07/10 08:13:35;;;;;;;;;2.50;2.50;;;;;19.85;46.43;101902.66;4898714;29;45649;-78
2022/07/10 08:16:01;;;;;;;;;3.50;3.00;;;;;19.78;45.92;101885.56;4899521;29;45629;-78
2022/07/10 08:18:26;;;;;;;;;3.25;3.00;;;;;19.92;46.00;101887.81;4899132;29;45892;-79
2022/07/10 08:20:51;;;;;;;;;3.00;2.00;;;;;19.98;45.97;101895.25;4898318;29;45708;-80
2022/07/10 08:23:17;;;;;;;;;2.50;2.00;;;;;19.98;46.07;101873.97;4880119;29;45848;-82
2022/07/10 08:25:42;;;;;;;;;2.25;2.00;;;;;20.01;45.89;101873.69;4880765;29;45827;-80
2022/07/10 08:28:09;;;;;;;;;2.50;2.50;;;;;20.03;45.04;101873.53;4897704;29;46539;-82
2022/07/10 08:30:38;;;;;;;;;2.75;2.00;;;;;20.13;45.07;101877.88;4897764;29;45857;-81
2022/07/10 08:33:03;;;;;;;;;2.75;2.25;;;;;20.13;44.44;101883.22;4900170;29;45512;-84
2022/07/10 08:38:51;;;;;;;;;2.25;1.75;;;;;20.26;44.50;101882.09;4898230;29;45569;-80
2022/07/10 08:41:17;;;;;;;;;2.25;2.00;;;;;20.27;44.35;101881.13;4898166;29;45551;-81
2022/07/10 08:43:43;;;;;;;;;1.75;1.75;;;;;20.36;44.36;101889.13;4897438;29;45698;-80
2022/07/10 08:46:12;;;;;;;;;2.75;2.00;;;;;20.38;44.24;101881.00;4898008;29;45609;-80
2022/07/10 08:48:41;;;;;;;;;4.00;3.00;;;;;20.37;43.65;101863.34;4897661;29;46406;-80
2022/07/10 08:54:29;;;;;;;;;3.25;2.75;;;;;20.48;43.80;101880.03;4897479;29;45744;-82
2022/07/10 08:56:59;;;;;;;;;1.75;1.75;;;;;20.52;43.46;101867.25;4896249;29;45514;-82
2022/07/10 08:59:26;;;;;;;;;3.00;2.00;;;;;20.64;43.27;101868.78;4897498;29;46986;-80
2022/07/10 09:01:53;;;;;;;;;3.00;3.00;;;;;20.69;43.21;101857.69;4898545;29;45796;-82
2022/07/10 09:04:26;;;;;;;;;2.00;2.00;;;;;20.78;42.96;101868.31;4900548;29;45664;-82
2022/07/10 09:06:54;;;;;;;;;2.00;2.00;;;;;20.84;42.87;101850.91;4900882;29;45756;-82
2022/07/10 09:09:20;;;;;;;;;3.50;3.50;;;;;20.90;42.62;101853.84;4883449;29;48309;-81
2022/07/10 09:11:46;;;;;;;;;6.00;4.50;;;;;20.93;42.85;101845.56;4901170;29;46333;-82
2022/07/10 09:14:16;;;;;;;;;3.00;2.75;;;;;20.95;42.29;101837.41;4900821;29;45863;-81
2022/07/10 09:16:45;;;;;;;;;7.50;7.00;;;;;21.08;42.60;101842.41;4900773;29;45779;-79
2022/07/10 09:23:43;;;;;;;;;4.00;3.75;;;;;21.25;42.19;101836.34;4902329;29;45884;-81
2022/07/10 09:26:08;;;;;;;;;6.75;6.00;;;;;21.23;42.43;101830.31;4905460;29;45586;-81
2022/07/10 09:28:33;;;;;;;;;3.00;3.00;;;;;21.34;42.37;101844.28;4884892;29;45957;-81
2022/07/10 09:30:59;;;;;;;;;6.00;6.00;;;;;21.32;42.21;101838.25;4899600;29;46863;-84
2022/07/10 09:33:26;;;;;;;;;3.50;3.50;;;;;21.45;41.64;101842.41;4900527;29;46208;-83
2022/07/10 09:39:13;;;;;;;;;3.25;3.25;;;;;21.50;41.25;101838.28;4900337;29;45655;-82
2022/07/10 09:41:39;;;;;;;;;3.00;2.75;;;;;21.55;41.51;101852.03;4898447;29;48356;-83
2022/07/10 09:44:09;;;;;;;;;2.25;2.25;;;;;21.55;41.33;101836.00;4900854;29;45481;-83
2022/07/10 09:46:40;;;;;;;;;3.00;3.00;;;;;21.63;40.98;101846.78;4899213;29;45709;-82
2022/07/10 09:49:07;;;;;;;;;4.00;4.00;;;;;21.65;40.89;101839.44;4899547;29;45968;-86
2022/07/10 09:54:55;;;;;;;;;2.00;2.00;;;;;21.69;40.99;101830.19;4900388;29;45915;-82
2022/07/10 09:57:26;;;;;;;;;2.00;2.00;;;;;21.67;40.94;101824.16;4898650;29;45820;-83
2022/07/10 09:59:53;;;;;;;;;2.25;1.50;;;;;21.72;41.15;101818.34;4900040;29;45953;-85
2022/07/10 10:02:20;;;;;;;;;2.00;1.00;;;;;21.75;41.24;101820.75;4882622;29;48606;-87
2022/07/10 10:04:48;;;;;;;;;2.00;2.00;;;;;21.80;41.12;101825.63;4900889;29;46007;-88
2022/07/10 10:10:37;;;;;;;;;3.00;2.00;;;;;21.97;39.91;101825.63;4900665;29;45555;-83
2022/07/10 10:13:08;;;;;;;;;1.75;1.75;;;;;21.94;39.80;101827.72;4882594;29;46620;-89
2022/07/10 10:15:35;;;;;;;;;2.00;1.75;;;;;21.96;40.12;101826.63;4882900;29;47161;-86
2022/07/10 10:18:02;;;;;;;;;3.00;2.50;;;;;22.04;40.21;101820.50;4883587;29;45567;-85
2022/07/10 10:20:37;;;;;;;;;2.00;2.00;;;;;22.07;40.20;101810.38;4899546;29;45570;-84
2022/07/10 10:23:09;;;;;;;;;2.00;2.00;;;;;22.10;39.56;101801.22;4899522;29;46551;-83
2022/07/10 10:25:35;;;;;;;;;2.50;2.25;;;;;22.14;39.83;101806.09;4899620;29;45810;-84
2022/07/10 10:28:02;;;;;;;;;2.50;2.00;;;;;;;;4900288;29;45514;-83
2022/07/10 10:30:29;;;;;;;;;1.00;1.00;;;;;22.23;39.40;101823.03;4882750;29;45481;-83
2022/07/10 10:32:55;;;;;;;;;3.00;2.00;;;;;22.19;39.07;101802.94;4899552;29;46626;-84
2022/07/10 10:35:47;;;;;;;;;2.00;2.00;;;;;22.26;39.30;101804.00;4898203;29;47230;-85
2022/07/10 10:38:14;;;;;;;;;1.50;1.50;;;;;22.23;39.34;101806.16;4898350;29;45626;-83
2022/07/10 10:40:39;;;;;;;;;2.25;2.25;;;;;22.25;39.86;101791.66;4898377;29;45890;-84
2022/07/10 10:43:21;;;;;;;;;2.25;2.25;;;;;22.37;39.61;101798.41;4900101;29;46537;-85
2022/07/10 10:45:50;;;;;;;;;2.00;2.00;;;;;22.38;39.46;101789.41;4899733;29;45710;-84
2022/07/10 10:48:17;;;;;;;;;2.00;2.00;;;;;22.37;39.50;101777.06;4899541;29;45799;-83
2022/07/10 10:50:42;;;;;;;;;1.25;1.25;;;;;22.54;39.81;101794.88;4897742;29;45800;-84
2022/07/10 10:53:15;;;;;;;;;2.00;1.25;;;;;22.58;39.08;101796.22;4899389;29;46552;-84
2022/07/10 10:56:01;;;;;;;;;2.00;2.00;;;;;22.62;39.33;101794.06;4881772;29;46927;-85
2022/07/10 10:58:41;;;;;;;;;1.25;1.25;;;;;22.61;39.08;101779.03;4899313;29;45605;-85
2022/07/10 11:01:25;;;;;;;;;2.25;2.00;;;;;22.59;39.02;101781.88;4898070;29;45883;-83
2022/07/10 11:04:09;;;;;;;;;3.00;3.00;;;;;22.65;39.39;101788.41;4899378;29;46424;-85
2022/07/10 11:06:52;;;;;;;;;3.00;3.00;;;;;22.62;39.01;101762.00;4882062;29;48580;-84
2022/07/10 11:09:24;;;;;;;;;2.25;2.25;;;;;22.62;39.13;101756.66;4899331;29;45720;-85
2022/07/10 11:12:08;;;;;;;;;3.00;2.00;;;;;22.68;39.12;101756.03;4882261;29;45880;-83
2022/07/10 11:14:45;;;;;;;;;2.00;1.75;;;;;22.73;38.95;101759.06;4899917;29;46605;-84
2022/07/10 11:17:10;;;;;;;;;3.00;1.25;;;;;22.78;38.88;101753.28;4898976;29;45862;-86
2022/07/10 11:19:36;;;;;;;;;2.75;2.00;;;;;22.86;38.72;101767.50;4881760;29;45663;-85
2022/07/10 11:22:05;;;;;;;;;2.25;2.00;;;;;22.88;38.76;101757.50;4897414;29;46014;-84
2022/07/10 11:24:51;;;;;;;;;2.00;2.00;;;;;22.92;38.99;101756.19;4881131;29;46493;-84
2022/07/10 11:27:39;;;;;;;;;3.50;2.00;;;;;22.97;38.69;101753.00;4898676;29;45903;-84
2022/07/10 11:30:05;;;;;;;;;1.50;1.00;;;;;22.98;39.15;101741.31;4898842;29;45554;-84
2022/07/10 11:32:30;;;;;;;;;2.00;1.00;;;;;22.91;38.67;101722.41;4899244;29;45651;-84
2022/07/10 11:34:57;;;;;;;;;2.00;2.00;;;;;23.04;38.85;101737.16;4885543;29;47113;-83
2022/07/10 11:37:27;;;;;;;;;2.00;2.00;;;;;23.00;38.66;101728.63;4904281;29;46424;-84
2022/07/10 11:40:08;;;;;;;;;1.25;1.00;;;;;23.07;38.66;101732.31;4905057;29;45430;-83
2022/07/10 11:42:54;;;;;;;;;2.25;2.00;;;;;23.13;38.88;101731.69;4900265;29;45871;-83
2022/07/10 11:45:30;;;;;;;;;2.00;1.25;;;;;23.11;38.75;101725.63;4898651;29;45601;-84
2022/07/10 11:47:57;;;;;;;;;1.50;1.25;;;;;23.16;38.66;101720.63;4896902;29;47444;-85
2022/07/10 11:50:23;;;;;;;;;2.00;2.00;;;;;23.27;38.96;101724.84;4881149;29;45552;-84
2022/07/10 11:52:49;;;;;;;;;2.75;2.50;;;;;23.32;39.45;101730.56;4896961;29;45766;-84
2022/07/10 11:55:20;;;;;;;;;2.00;2.00;;;;;23.41;38.67;101727.72;4898525;29;46377;-84
2022/07/10 11:57:48;;;;;;;;;1.75;1.75;;;;;23.43;39.08;101731.06;4897462;29;47550;-84
2022/07/10 12:00:26;;;;;;;;;1.00;1.00;;;;;23.55;38.27;101730.75;4898508;29;45457;-85
2022/07/10 12:02:52;;;;;;;;;1.00;1.00;;;;;23.55;38.42;101728.09;4881624;29;45991;-84
2022/07/10 12:05:34;;;;;;;;;1.00;1.00;;;;;23.58;38.40;101728.63;4898143;29;45683;-84
2022/07/10 12:08:00;;;;;;;;;3.50;2.00;;;;;23.55;38.94;101722.75;4881090;29;47030;-85
2022/07/10 12:10:27;;;;;;;;;3.00;3.00;;;;;23.63;38.39;101739.66;4880957;29;45743;-85
2022/07/10 12:12:52;;;;;;;;;1.00;1.00;;;;;23.65;38.51;101721.56;4897018;29;45642;-86
2022/07/10 12:15:50;;;;;;;;;2.00;1.00;;;;;23.68;38.59;101723.94;4898433;29;46585;-85
2022/07/10 12:18:17;;;;;;;;;1.00;1.00;;;;;23.73;38.60;101728.78;4803342;29;45890;-84
2022/07/10 12:20:47;;;;;;;;;2.00;0.00;;;;;23.78;38.22;101732.63;4803865;29;45667;-84
2022/07/10 12:23:16;;;;;;;;;1.00;1.00;;;;;23.77;38.59;101717.56;4803453;29;45681;-84
2022/07/10 12:25:42;;;;;;;;;2.00;1.00;;;;;23.85;37.94;101732.81;4802959;29;47436;-85
2022/07/10 12:28:08;;;;;;;;;2.00;2.00;;;;;23.87;38.39;101721.91;4803152;29;48189;-85
2022/07/10 12:30:44;;;;;;;;;1.00;1.00;;;;;23.84;37.92;101718.56;4787656;29;45706;-83
2022/07/10 12:33:18;;;;;;;;;1.00;1.00;;;;;23.87;37.82;101722.75;4803159;29;45863;-83
2022/07/10 12:35:57;;;;;;;;;2.00;1.25;;;;;23.97;37.87;101735.97;4803594;29;46487;-85
2022/07/10 12:38:27;;;;;;;;;1.00;1.00;;;;;23.94;37.97;101730.94;4807814;29;46649;-85
2022/07/10 12:41:11;;;;;;;;;0.75;0.75;;;;;24.06;38.08;101735.78;4806481;29;45656;-86
2022/07/10 12:43:38;;;;;;;;;1.00;1.00;;;;;24.11;37.65;101724.56;4791448;29;45935;-84
2022/07/10 12:46:19;;;;;;;;;1.00;1.00;;;;;24.14;38.26;101729.56;4806572;29;46583;-85